createdAt,value
2018-01-19T00:00:11.007Z,3.50
2018-01-19T00:02:38.477Z,3.50
2018-01-19T00:05:05.960Z,3.50
2018-01-19T00:07:33.431Z,3.60
2018-01-19T00:10:00.951Z,3.60
2018-01-19T00:12:28.420Z,3.70
2018-01-19T00:14:56.667Z,3.70
2018-01-19T00:17:24.118Z,3.70
2018-01-19T00:19:51.596Z,3.80
2018-01-19T00:22:20.571Z,3.80
2018-01-19T00:24:48.061Z,3.80
2018-01-19T00:27:16.286Z,3.90
2018-01-19T00:32:35.418Z,3.90
2018-01-19T00:35:03.679Z,3.90
2018-01-19T00:37:31.143Z,3.90
2018-01-19T00:39:59.392Z,3.90
2018-01-19T00:42:26.850Z,3.90
2018-01-19T00:44:54.344Z,3.90
2018-01-19T00:47:22.571Z,4.00
2018-01-19T00:49:50.063Z,4.00
2018-01-19T00:52:17.527Z,4.00
2018-01-19T00:54:45.788Z,4.10
2018-01-19T00:57:13.253Z,4.10
2018-01-19T00:59:41.534Z,4.10
2018-01-19T01:02:09.783Z,4.20
2018-01-19T01:04:37.268Z,4.10
2018-01-19T01:07:05.503Z,4.20
2018-01-19T01:09:32.966Z,4.20
2018-01-19T01:12:00.444Z,4.20
2018-01-19T01:14:27.907Z,4.20
2018-01-19T01:16:55.387Z,4.20
2018-01-19T01:19:23.627Z,4.20
2018-01-19T01:21:51.127Z,4.20
2018-01-19T01:24:18.608Z,4.30
2018-01-19T01:26:46.080Z,4.20
2018-01-19T01:29:13.548Z,4.20
2018-01-19T01:31:41.023Z,4.10
2018-01-19T01:34:08.489Z,4.10
2018-01-19T01:36:36.760Z,4.00
2018-01-19T01:39:04.223Z,4.00
2018-01-19T01:41:32.478Z,3.90
2018-01-19T01:43:59.953Z,3.90
2018-01-19T01:46:28.219Z,3.70
2018-01-19T01:49:07.654Z,3.70
2018-01-19T01:51:35.133Z,3.80
2018-01-19T01:54:02.605Z,3.70
2018-01-19T01:56:30.839Z,3.70
2018-01-19T01:58:58.315Z,3.60
2018-01-19T02:01:25.805Z,3.60
2018-01-19T02:03:54.036Z,3.60
2018-01-19T02:06:21.512Z,3.50
2018-01-19T02:08:49.749Z,3.50
2018-01-19T02:11:18.131Z,3.50
2018-01-19T02:13:45.590Z,3.50
2018-01-19T02:16:13.071Z,3.50
2018-01-19T02:18:40.548Z,3.40
2018-01-19T02:21:08.809Z,3.50
2018-01-19T02:23:36.265Z,3.50
2018-01-19T02:26:03.731Z,3.50
2018-01-19T02:28:31.771Z,3.40
2018-01-19T02:30:59.274Z,3.50
2018-01-19T02:33:27.837Z,3.40
2018-01-19T02:35:56.102Z,3.40
2018-01-19T02:38:23.570Z,3.40
2018-01-19T02:40:51.045Z,3.40
2018-01-19T02:43:19.301Z,3.40
2018-01-19T02:45:46.763Z,3.40
2018-01-19T02:48:14.247Z,3.50
2018-01-19T02:50:42.480Z,3.40
2018-01-19T02:53:10.014Z,3.40
2018-01-19T02:55:37.471Z,3.40
2018-01-19T02:58:04.996Z,3.40
2018-01-19T03:00:33.223Z,3.40
2018-01-19T03:03:00.708Z,3.40
2018-01-19T03:05:28.745Z,3.40
2018-01-19T03:07:56.231Z,3.40
2018-01-19T03:10:23.802Z,3.40
2018-01-19T03:12:52.043Z,3.40
2018-01-19T03:15:19.511Z,3.40
2018-01-19T03:17:47.041Z,3.40
2018-01-19T03:20:14.518Z,3.40
2018-01-19T03:22:43.008Z,3.40
2018-01-19T03:25:10.483Z,3.40
2018-01-19T03:27:37.982Z,3.40
2018-01-19T03:30:05.437Z,3.40
2018-01-19T03:32:32.957Z,3.40
2018-01-19T03:35:00.420Z,3.40
2018-01-19T03:37:28.662Z,3.40
2018-01-19T03:39:56.123Z,3.40
2018-01-19T03:42:23.596Z,3.30
2018-01-19T03:44:52.572Z,3.30
2018-01-19T03:47:20.044Z,3.30
2018-01-19T03:49:47.516Z,3.20
2018-01-19T03:52:15.762Z,3.30
2018-01-19T03:54:43.255Z,3.30
2018-01-19T03:57:11.492Z,3.20
2018-01-19T03:59:38.976Z,3.30
2018-01-19T04:02:07.211Z,3.10
2018-01-19T04:04:34.721Z,3.10
2018-01-19T04:07:02.952Z,3.00
2018-01-19T04:09:30.428Z,3.00
2018-01-19T04:11:57.884Z,3.00
2018-01-19T04:14:25.366Z,3.00
2018-01-19T04:16:52.845Z,3.00
2018-01-19T04:19:20.319Z,3.00
2018-01-19T04:21:47.794Z,2.90
2018-01-19T04:24:15.289Z,2.90
2018-01-19T04:26:42.752Z,2.90
2018-01-19T04:29:10.223Z,2.90
2018-01-19T04:31:38.459Z,2.90
2018-01-19T04:34:05.945Z,2.80
2018-01-19T04:36:33.419Z,2.80
2018-01-19T04:39:01.682Z,2.80
2018-01-19T04:41:29.148Z,2.80
2018-01-19T04:43:57.379Z,2.80
2018-01-19T04:46:24.860Z,2.70
2018-01-19T04:48:52.348Z,2.80
2018-01-19T04:51:20.580Z,2.80
2018-01-19T04:53:48.044Z,2.80
2018-01-19T04:56:16.837Z,2.70
2018-01-19T04:58:44.396Z,2.80
2018-01-19T05:01:11.879Z,2.80
2018-01-19T05:03:40.104Z,2.80
2018-01-19T05:06:07.579Z,2.80
2018-01-19T05:08:35.815Z,2.90
2018-01-19T05:11:03.305Z,2.90
2018-01-19T05:13:30.780Z,2.90
2018-01-19T05:15:58.249Z,2.90
2018-01-19T05:18:26.495Z,2.90
2018-01-19T05:20:53.980Z,2.90
2018-01-19T05:23:21.451Z,2.90
2018-01-19T05:25:49.703Z,2.90
2018-01-19T05:28:17.165Z,2.90
2018-01-19T05:30:44.656Z,2.90
2018-01-19T05:33:12.225Z,2.90
2018-01-19T05:35:39.697Z,3.00
2018-01-19T05:38:07.195Z,2.90
2018-01-19T05:40:34.705Z,2.90
2018-01-19T05:43:02.167Z,2.90
2018-01-19T05:45:29.643Z,2.90
2018-01-19T05:47:57.116Z,2.80
2018-01-19T05:50:26.103Z,2.70
2018-01-19T05:52:53.581Z,2.70
2018-01-19T05:55:21.838Z,2.70
2018-01-19T05:57:49.312Z,2.70
2018-01-19T06:00:16.828Z,2.70
2018-01-19T06:02:44.295Z,2.70
2018-01-19T06:05:11.790Z,2.60
2018-01-19T06:07:40.025Z,2.60
2018-01-19T06:10:07.528Z,2.60
2018-01-19T06:12:35.753Z,2.50
2018-01-19T06:15:03.220Z,2.50
2018-01-19T06:17:30.712Z,2.50
2018-01-19T06:20:01.810Z,2.50
2018-01-19T06:25:24.003Z,2.40
2018-01-19T06:27:52.980Z,2.40
2018-01-19T06:30:20.474Z,2.40
2018-01-19T06:32:48.727Z,2.30
2018-01-19T06:35:16.206Z,2.30
2018-01-19T06:37:44.448Z,2.30
2018-01-19T06:40:11.937Z,2.30
2018-01-19T06:42:40.191Z,2.30
2018-01-19T06:45:07.656Z,2.30
2018-01-19T06:47:41.681Z,2.30
2018-01-19T06:50:09.918Z,2.20
2018-01-19T06:52:37.403Z,2.20
2018-01-19T06:55:04.920Z,2.20
2018-01-19T06:57:32.401Z,2.20
2018-01-19T06:59:59.884Z,2.30
2018-01-19T07:02:28.148Z,2.30
2018-01-19T07:04:56.540Z,2.30
2018-01-19T07:07:24.802Z,2.30
2018-01-19T07:09:53.380Z,2.30
2018-01-19T07:12:20.859Z,2.30
2018-01-19T07:14:49.106Z,2.30
2018-01-19T07:17:16.586Z,2.30
2018-01-19T07:19:44.056Z,2.30
2018-01-19T07:22:12.305Z,2.40
2018-01-19T07:24:39.788Z,2.30
2018-01-19T07:27:08.051Z,2.30
2018-01-19T07:29:35.510Z,2.40
2018-01-19T07:32:02.986Z,2.40
2018-01-19T07:34:31.216Z,2.40
2018-01-19T07:36:58.694Z,2.40
2018-01-19T07:39:26.180Z,2.50
2018-01-19T07:41:54.453Z,2.50
2018-01-19T07:44:22.702Z,2.60
2018-01-19T07:46:57.035Z,2.60
2018-01-19T07:49:25.272Z,2.70
2018-01-19T07:51:52.758Z,2.70
2018-01-19T07:54:21.753Z,2.70
2018-01-19T07:56:49.224Z,2.70
2018-01-19T07:59:17.516Z,2.70
2018-01-19T08:01:45.251Z,2.70
2018-01-19T08:04:12.737Z,2.70
2018-01-19T08:06:40.234Z,2.70
2018-01-19T08:09:07.730Z,2.70
2018-01-19T08:11:35.227Z,2.70
2018-01-19T08:14:02.719Z,2.70
2018-01-19T08:16:30.198Z,2.70
2018-01-19T08:18:59.184Z,2.70
2018-01-19T08:21:26.964Z,2.70
2018-01-19T08:23:56.132Z,2.70
2018-01-19T08:26:23.634Z,2.70
2018-01-19T08:28:51.928Z,2.70
2018-01-19T08:31:19.400Z,2.70
2018-01-19T08:33:46.892Z,2.70
2018-01-19T08:36:14.360Z,2.80
2018-01-19T08:38:41.841Z,2.70
2018-01-19T08:41:10.104Z,2.70
2018-01-19T08:43:37.571Z,2.70
2018-01-19T08:46:05.851Z,2.80
2018-01-19T08:48:34.115Z,2.90
2018-01-19T08:51:02.344Z,2.90
2018-01-19T08:53:29.823Z,2.90
2018-01-19T08:58:50.244Z,2.80
2018-01-19T09:01:17.727Z,2.90
2018-01-19T09:03:45.972Z,2.90
2018-01-19T09:06:13.448Z,2.90
2018-01-19T09:08:40.922Z,2.90
2018-01-19T09:11:09.157Z,3.00
2018-01-19T09:13:36.642Z,3.00
2018-01-19T09:16:04.881Z,3.00
2018-01-19T09:18:32.372Z,3.00
2018-01-19T09:20:59.846Z,3.10
2018-01-19T09:23:28.103Z,3.00
2018-01-19T09:25:55.572Z,3.00
2018-01-19T09:28:23.824Z,2.90
2018-01-19T09:30:52.070Z,2.90
2018-01-19T09:33:19.548Z,2.80
2018-01-19T09:35:47.037Z,2.90
2018-01-19T09:38:16.149Z,2.80
2018-01-19T09:40:43.634Z,2.80
2018-01-19T09:43:11.096Z,2.90
2018-01-19T09:45:38.572Z,3.00
2018-01-19T09:48:06.041Z,2.90
2018-01-19T09:50:33.524Z,2.90
2018-01-19T09:53:01.756Z,3.10
2018-01-19T09:55:29.243Z,3.00
2018-01-19T09:57:56.713Z,3.10
2018-01-19T10:00:25.018Z,3.20
2018-01-19T10:02:52.500Z,3.20
2018-01-19T10:05:19.982Z,3.20
2018-01-19T10:07:48.207Z,3.40
2018-01-19T10:10:15.694Z,3.40
2018-01-19T10:12:43.172Z,3.60
2018-01-19T10:20:57.624Z,3.70
2018-01-19T10:23:25.088Z,3.80
2018-01-19T10:25:52.576Z,3.80
2018-01-19T10:28:20.048Z,4.00
2018-01-19T10:30:47.525Z,4.00
2018-01-19T10:33:15.754Z,4.10
2018-01-19T10:35:43.240Z,4.10
2018-01-19T10:38:12.068Z,4.10
2018-01-19T10:40:39.540Z,4.10
2018-01-19T10:43:07.003Z,4.10
2018-01-19T10:45:34.552Z,4.20
2018-01-19T10:48:02.031Z,4.20
2018-01-19T10:50:29.508Z,4.10
2018-01-19T10:52:57.066Z,4.20
2018-01-19T10:55:24.569Z,4.20
2018-01-19T10:57:52.046Z,4.20
2018-01-19T11:00:19.539Z,4.20
2018-01-19T11:02:47.791Z,4.20
2018-01-19T11:05:15.328Z,4.20
2018-01-19T11:07:42.804Z,4.30
2018-01-19T11:10:10.292Z,4.30
2018-01-19T11:12:37.771Z,4.30
2018-01-19T11:15:06.008Z,4.20
2018-01-19T11:17:33.498Z,4.20
2018-01-19T11:20:00.972Z,4.20
2018-01-19T11:22:29.234Z,4.40
2018-01-19T11:27:50.163Z,4.50
2018-01-19T11:36:05.664Z,4.50
2018-01-19T11:38:33.237Z,4.50
2018-01-19T11:41:01.496Z,4.60
2018-01-19T11:43:29.062Z,4.60
2018-01-19T11:45:56.550Z,4.70
2018-01-19T11:51:17.035Z,4.50
2018-01-19T11:53:45.282Z,4.30
2018-01-19T11:56:13.671Z,4.30
2018-01-19T11:58:41.153Z,4.30
2018-01-19T12:01:09.389Z,4.20
2018-01-19T12:03:36.871Z,4.20
2018-01-19T12:06:04.591Z,4.30
2018-01-19T12:08:32.812Z,4.30
2018-01-19T12:11:00.287Z,4.30
2018-01-19T12:13:28.548Z,4.40
2018-01-19T12:15:56.020Z,4.40
2018-01-19T12:18:24.372Z,4.50
2018-01-19T12:20:51.838Z,4.50
2018-01-19T12:23:19.319Z,4.50
2018-01-19T12:25:47.580Z,4.60
2018-01-19T12:28:15.184Z,4.60
2018-01-19T12:30:42.663Z,4.60
2018-01-19T12:33:10.155Z,4.60
2018-01-19T12:35:38.403Z,4.50
2018-01-19T12:38:05.904Z,4.50
2018-01-19T12:40:34.275Z,4.60
2018-01-19T12:43:01.749Z,4.60
2018-01-19T12:45:29.983Z,4.60
2018-01-19T12:47:57.473Z,4.60
2018-01-19T12:50:25.833Z,4.80
2018-01-19T12:52:54.242Z,4.80
2018-01-19T12:55:21.710Z,4.80
2018-01-19T12:57:49.205Z,4.80
2018-01-19T13:00:16.682Z,4.70
2018-01-19T13:02:44.259Z,4.70
2018-01-19T13:05:12.504Z,4.80
2018-01-19T13:07:39.987Z,4.80
2018-01-19T13:10:07.477Z,4.80
2018-01-19T13:12:34.971Z,4.90
2018-01-19T13:15:02.462Z,4.80
2018-01-19T13:17:29.937Z,4.80
2018-01-19T13:19:58.208Z,4.90
2018-01-19T13:22:27.277Z,4.90
2018-01-19T13:24:55.544Z,4.90
2018-01-19T13:27:23.034Z,4.90
2018-01-19T13:29:51.271Z,4.90
2018-01-19T13:32:19.501Z,4.80
2018-01-19T13:34:47.744Z,4.90
2018-01-19T13:37:15.236Z,4.90
2018-01-19T13:39:42.713Z,5.00
2018-01-19T13:42:10.174Z,5.00
2018-01-19T13:44:37.658Z,5.10
2018-01-19T13:47:05.139Z,5.20
2018-01-19T13:49:32.616Z,5.20
2018-01-19T13:52:00.849Z,5.00
2018-01-19T13:54:28.355Z,5.00
2018-01-19T13:56:55.840Z,5.00
2018-01-19T13:59:23.344Z,4.90
2018-01-19T14:01:50.821Z,4.90
2018-01-19T14:04:19.881Z,4.80
2018-01-19T14:06:47.348Z,4.80
2018-01-19T14:09:14.838Z,4.80
2018-01-19T14:11:42.304Z,4.80
2018-01-19T14:14:09.788Z,4.80
2018-01-19T14:16:37.263Z,4.70
2018-01-19T14:19:04.753Z,4.70
2018-01-19T14:21:32.999Z,4.60
2018-01-19T14:24:00.486Z,4.60
2018-01-19T14:26:28.727Z,4.50
2018-01-19T14:28:56.221Z,4.50
2018-01-19T14:31:24.530Z,4.40
2018-01-19T14:33:53.670Z,4.30
2018-01-19T14:36:22.232Z,4.30
2018-01-19T14:38:49.720Z,4.20
2018-01-19T14:41:17.223Z,4.30
2018-01-19T14:43:44.719Z,4.20
2018-01-19T14:46:12.215Z,4.20
2018-01-19T14:48:40.444Z,4.40
2018-01-19T14:51:07.940Z,4.30
2018-01-19T14:53:36.754Z,4.50
2018-01-19T14:56:04.233Z,4.40
2018-01-19T14:58:32.115Z,4.40
2018-01-19T15:00:59.587Z,4.40
2018-01-19T15:03:27.064Z,4.40
2018-01-19T15:05:55.317Z,4.40
2018-01-19T15:08:22.796Z,4.40
2018-01-19T15:10:50.307Z,4.30
2018-01-19T15:13:17.779Z,4.30
2018-01-19T15:15:45.271Z,4.30
2018-01-19T15:18:12.732Z,4.30
2018-01-19T15:20:41.236Z,4.20
2018-01-19T15:23:08.719Z,4.20
2018-01-19T15:25:36.211Z,4.10
2018-01-19T15:28:04.449Z,3.70
2018-01-19T15:30:31.924Z,3.70
2018-01-19T15:33:00.180Z,3.50
2018-01-19T15:35:32.469Z,3.50
2018-01-19T15:37:59.944Z,3.50
2018-01-19T15:40:28.199Z,3.50
2018-01-19T15:42:55.736Z,3.50
2018-01-19T15:45:23.201Z,3.50
2018-01-19T15:47:50.667Z,3.50
2018-01-19T15:50:18.172Z,3.50
2018-01-19T15:52:45.644Z,3.50
2018-01-19T15:55:13.901Z,3.40
2018-01-19T15:57:41.403Z,3.40
2018-01-19T16:00:08.886Z,3.40
2018-01-19T16:02:36.386Z,3.40
2018-01-19T16:05:04.635Z,3.30
2018-01-19T16:07:32.941Z,3.20
2018-01-19T16:10:00.520Z,3.20
2018-01-19T16:12:28.000Z,3.30
2018-01-19T16:14:55.468Z,3.30
2018-01-19T16:17:23.673Z,3.20
2018-01-19T16:19:51.144Z,3.30
2018-01-19T16:22:19.389Z,3.30
2018-01-19T16:24:46.872Z,3.30
2018-01-19T16:27:14.363Z,3.30
2018-01-19T16:29:41.845Z,3.30
2018-01-19T16:32:09.328Z,3.30
2018-01-19T16:34:36.791Z,3.20
2018-01-19T16:37:04.298Z,3.20
2018-01-19T16:39:31.816Z,3.20
2018-01-19T16:41:59.322Z,3.20
2018-01-19T16:44:26.800Z,3.20
2018-01-19T16:46:54.297Z,3.20
2018-01-19T16:49:22.556Z,3.20
2018-01-19T16:51:50.040Z,3.10
2018-01-19T16:54:18.281Z,3.10
2018-01-19T16:56:45.760Z,3.10
2018-01-19T16:59:13.223Z,3.10
2018-01-19T17:01:41.471Z,3.10
2018-01-19T17:04:08.948Z,3.10
2018-01-19T17:06:37.248Z,3.10
2018-01-19T17:09:06.678Z,3.20
2018-01-19T17:11:35.130Z,3.20
2018-01-19T17:14:03.377Z,3.10
2018-01-19T17:16:30.855Z,3.10
2018-01-19T17:18:59.119Z,3.10
2018-01-19T17:21:26.597Z,3.10
2018-01-19T17:23:54.846Z,3.10
2018-01-19T17:26:22.322Z,3.10
2018-01-19T17:28:50.562Z,3.10
2018-01-19T17:31:18.053Z,3.10
2018-01-19T17:33:46.313Z,3.00
2018-01-19T17:36:13.775Z,3.00
2018-01-19T17:38:41.286Z,3.00
2018-01-19T17:41:08.762Z,3.00
2018-01-19T17:43:36.257Z,3.00
2018-01-19T17:46:03.816Z,2.90
2018-01-19T17:48:34.696Z,2.90
2018-01-19T17:51:02.200Z,2.90
2018-01-19T17:53:29.683Z,3.00
2018-01-19T17:55:57.914Z,2.90
2018-01-19T17:58:25.410Z,2.90
2018-01-19T18:00:53.673Z,3.00
2018-01-19T18:03:21.164Z,3.00
2018-01-19T18:05:48.632Z,3.00
2018-01-19T18:08:16.113Z,3.00
2018-01-19T18:10:43.576Z,2.90
2018-01-19T18:13:11.077Z,2.90
2018-01-19T18:15:39.317Z,3.00
2018-01-19T18:18:06.804Z,3.00
2018-01-19T18:23:00.052Z,2.90
2018-01-19T18:25:27.524Z,2.90
2018-01-19T18:27:56.031Z,3.00
2018-01-19T18:30:24.340Z,2.90
2018-01-19T18:32:52.571Z,2.90
2018-01-19T18:35:21.896Z,2.90
2018-01-19T18:37:49.382Z,2.90
2018-01-19T18:40:17.633Z,2.90
2018-01-19T18:42:45.158Z,2.90
2018-01-19T18:45:12.645Z,2.90
2018-01-19T18:47:40.137Z,3.00
2018-01-19T18:50:07.620Z,3.00
2018-01-19T18:52:35.088Z,2.90
2018-01-19T18:55:02.590Z,2.90
2018-01-19T18:57:30.080Z,2.90
2018-01-19T18:59:57.551Z,2.90
2018-01-19T19:02:26.222Z,2.90
2018-01-19T19:04:53.709Z,2.90
2018-01-19T19:07:21.990Z,2.90
2018-01-19T19:09:49.488Z,2.80
2018-01-19T19:12:16.981Z,2.80
2018-01-19T19:14:44.482Z,2.80
2018-01-19T19:17:12.782Z,2.90
2018-01-19T19:19:40.278Z,2.90
2018-01-19T19:22:07.749Z,2.80
2018-01-19T19:24:35.249Z,2.80
2018-01-19T19:27:02.749Z,2.80
2018-01-19T19:29:30.294Z,2.70
2018-01-19T19:31:57.954Z,2.80
2018-01-19T19:34:25.477Z,2.70
2018-01-19T19:36:52.984Z,2.60
2018-01-19T19:39:20.505Z,2.70
2018-01-19T19:41:47.994Z,2.80
2018-01-19T19:44:15.478Z,2.80
2018-01-19T19:46:43.087Z,2.80
2018-01-19T19:49:10.580Z,2.70
2018-01-19T19:51:39.609Z,2.80
2018-01-19T19:54:07.836Z,2.90
2018-01-19T19:56:35.395Z,2.80
2018-01-19T19:59:02.916Z,2.80
2018-01-19T20:01:32.134Z,2.80
2018-01-19T20:03:59.597Z,2.80
2018-01-19T20:06:27.143Z,2.80
2018-01-19T20:08:54.620Z,2.80
2018-01-19T20:11:22.100Z,2.70
2018-01-19T20:13:49.620Z,2.80
2018-01-19T20:16:17.131Z,2.80
2018-01-19T20:18:45.372Z,2.80
2018-01-19T20:21:12.904Z,2.80
2018-01-19T20:23:40.414Z,2.80
2018-01-19T20:26:07.955Z,2.80
2018-01-19T20:28:35.481Z,2.80
2018-01-19T20:31:03.001Z,2.80
2018-01-19T20:33:31.232Z,2.80
2018-01-19T20:35:58.720Z,2.80
2018-01-19T20:38:26.203Z,2.80
2018-01-19T20:40:54.499Z,2.70
2018-01-19T20:43:22.030Z,2.70
2018-01-19T20:45:50.326Z,2.70
2018-01-19T20:48:18.608Z,2.70
2018-01-19T20:50:46.138Z,2.70
2018-01-19T20:53:13.639Z,2.80
2018-01-19T20:55:41.166Z,2.80
2018-01-19T20:58:09.472Z,2.80
2018-01-19T21:00:36.990Z,2.80
2018-01-19T21:03:06.024Z,2.90
2018-01-19T21:05:33.544Z,2.90
2018-01-19T21:08:01.086Z,2.90
2018-01-19T21:10:28.594Z,2.90
2018-01-19T21:12:56.125Z,2.90
2018-01-19T21:15:23.634Z,2.90
2018-01-19T21:17:51.154Z,2.90
2018-01-19T21:20:19.467Z,2.90
2018-01-19T21:22:46.939Z,2.90
2018-01-19T21:25:14.442Z,2.90
2018-01-19T21:27:42.742Z,2.90
2018-01-19T21:30:10.247Z,2.90
2018-01-19T21:32:37.810Z,2.90
2018-01-19T21:35:05.437Z,2.90
2018-01-19T21:37:32.916Z,2.80
2018-01-19T21:40:00.428Z,2.80
2018-01-19T21:42:28.721Z,2.90
2018-01-19T21:44:56.261Z,2.80
2018-01-19T21:47:24.994Z,2.80
2018-01-19T21:49:52.481Z,2.80
2018-01-19T21:52:20.028Z,2.80
2018-01-19T21:54:47.555Z,2.70
2018-01-19T21:57:15.800Z,2.70
2018-01-19T21:59:44.092Z,2.80
2018-01-19T22:02:11.618Z,2.80
2018-01-19T22:04:39.094Z,2.80
2018-01-19T22:07:07.395Z,2.60
2018-01-19T22:09:34.856Z,2.60
2018-01-19T22:12:02.372Z,2.70
2018-01-19T22:14:29.891Z,2.80
2018-01-19T22:16:57.543Z,2.80
2018-01-19T22:19:25.050Z,2.70
2018-01-19T22:21:53.288Z,2.70
2018-01-19T22:24:20.789Z,2.70
2018-01-19T22:26:49.057Z,2.70
2018-01-19T22:29:16.549Z,2.70
2018-01-19T22:31:44.045Z,2.60
2018-01-19T22:34:11.506Z,2.70
2018-01-19T22:36:38.978Z,2.70
2018-01-19T22:39:07.278Z,2.60
2018-01-19T22:41:35.574Z,2.70
2018-01-19T22:44:03.048Z,2.70
2018-01-19T22:46:30.579Z,2.60
2018-01-19T22:48:58.818Z,2.60
2018-01-19T22:51:26.294Z,2.60
2018-01-19T22:53:53.770Z,2.60
2018-01-19T22:56:21.946Z,2.60
2018-01-19T22:58:50.200Z,2.70
2018-01-19T23:01:18.488Z,2.70
2018-01-19T23:03:46.809Z,2.70
2018-01-19T23:06:14.335Z,2.70
2018-01-19T23:08:42.593Z,2.70
2018-01-19T23:11:10.061Z,2.70
2018-01-19T23:13:37.604Z,2.80
2018-01-19T23:16:05.112Z,2.70
2018-01-19T23:18:32.624Z,2.80
2018-01-19T23:21:00.102Z,2.80
2018-01-19T23:23:27.628Z,2.70
2018-01-19T23:25:55.104Z,2.60
2018-01-19T23:28:23.411Z,2.60
2018-01-19T23:30:51.519Z,2.60
2018-01-19T23:33:18.996Z,2.60
2018-01-19T23:35:46.471Z,2.60
2018-01-19T23:38:14.690Z,2.60
2018-01-19T23:40:42.208Z,2.60
2018-01-19T23:43:10.448Z,2.60
2018-01-19T23:45:37.936Z,2.60
2018-01-19T23:48:06.190Z,2.60
2018-01-19T23:50:33.730Z,2.60
2018-01-19T23:53:01.460Z,2.60
2018-01-19T23:55:28.990Z,2.60
2018-01-19T23:57:57.243Z,2.60
